Check out our new BloomSky Weather System.

Active alerts


No alerts


Thunder radar  blitzortung!


Rain radar more information rain snow radar


Visit our other weather sites:

Template documentation
and downloads

And another site



Weather Underground History page Text

Daily Summary for January 8, 2017 Units:  English    Metric   Both
« Previous Day
Next Day »
Daily Weekly Monthly Yearly Custom
  High: Low: Average:
Temperature: 49.8 °F 22.5 °F 37.2 °F
Dew Point: 36.5 °F 14.2 °F 26.4 °F
Humidity: 93 % 30 % 69 %
Wind Speed: 10.0 mph 0.0 mph 1.7 mph
Wind Gust: 13.0 mph - -
Wind:- - SE
Pressure: 30.76 in 30.51 in -
Precipitation: 0.00 in    
Historical Graphs
 
 
Tabular Data for January 8, 2017
Time Temperature Dew Point Pressure Wind Wind Speed Wind Gust Humidity Rainfall Rate (Hourly)
00:02 26.1 °F 20.7 °F 30.76 in Calm     80 % 0.00 in
00:07 25.9 °F 20.5 °F 30.76 in Calm     80 % 0.00 in
00:13 25.9 °F 20.5 °F 30.76 in Calm     80 % 0.00 in
00:18 25.9 °F 20.8 °F 30.76 in Calm     81 % 0.00 in
00:23 26.1 °F 21.0 °F 30.76 in Calm     81 % 0.00 in
00:28 26.1 °F 21.4 °F 30.76 in Calm     82 % 0.00 in
00:33 26.2 °F 21.7 °F 30.76 in Calm     83 % 0.00 in
00:38 26.1 °F 21.4 °F 30.76 in Calm     82 % 0.00 in
00:43 25.7 °F 21.0 °F 30.76 in Calm     82 % 0.00 in
00:48 25.3 °F 20.8 °F 30.76 in Calm     83 % 0.00 in
00:53 25.2 °F 20.7 °F 30.76 in Calm     83 % 0.00 in
00:58 25.3 °F 21.4 °F 30.75 in Calm     85 % 0.00 in
01:03 25.9 °F 21.9 °F 30.75 in Calm     85 % 0.00 in
01:08 25.9 °F 21.7 °F 30.75 in Calm     84 % 0.00 in
01:13 25.7 °F 21.7 °F 30.75 in Calm     85 % 0.00 in
01:18 25.5 °F 21.6 °F 30.75 in Calm     85 % 0.00 in
01:23 25.5 °F 21.6 °F 30.75 in Calm     85 % 0.00 in
01:28 25.5 °F 21.6 °F 30.75 in Calm     85 % 0.00 in
01:33 25.5 °F 21.6 °F 30.75 in Calm     85 % 0.00 in
01:38 25.3 °F 21.4 °F 30.75 in Calm     85 % 0.00 in
01:43 25.3 °F 21.4 °F 30.75 in Calm     85 % 0.00 in
01:48 25.2 °F 21.4 °F 30.75 in Calm     85 % 0.00 in
01:53 25.0 °F 21.2 °F 30.75 in Calm     85 % 0.00 in
01:58 24.8 °F 21.0 °F 30.74 in Calm     85 % 0.00 in
02:03 24.6 °F 21.0 °F 30.74 in Calm     86 % 0.00 in
02:08 24.8 °F 21.2 °F 30.74 in Calm     86 % 0.00 in
02:13 25.0 °F 21.7 °F 30.74 in Calm     87 % 0.00 in
02:18 25.2 °F 21.6 °F 30.74 in Calm     86 % 0.00 in
02:23 25.0 °F 21.4 °F 30.74 in Calm     86 % 0.00 in
02:28 24.6 °F 21.0 °F 30.74 in Calm     86 % 0.00 in
02:33 24.8 °F 21.6 °F 30.74 in Calm     87 % 0.00 in
02:38 25.0 °F 21.7 °F 30.74 in Calm     87 % 0.00 in
02:43 25.0 °F 21.7 °F 30.74 in Calm     87 % 0.00 in
02:48 24.8 °F 21.2 °F 30.74 in Calm     86 % 0.00 in
02:53 24.6 °F 21.0 °F 30.74 in Calm     86 % 0.00 in
02:58 24.4 °F 20.8 °F 30.74 in Calm     86 % 0.00 in
03:03 24.1 °F 20.5 °F 30.74 in Calm     86 % 0.00 in
03:08 23.9 °F 20.7 °F 30.74 in Calm     87 % 0.00 in
03:13 23.9 °F 20.7 °F 30.74 in Calm     87 % 0.00 in
03:18 23.7 °F 20.5 °F 30.74 in Calm     87 % 0.00 in
03:23 23.5 °F 20.3 °F 30.74 in Calm     87 % 0.00 in
03:28 23.4 °F 20.3 °F 30.74 in Calm     88 % 0.00 in
03:33 23.2 °F 20.1 °F 30.74 in Calm     88 % 0.00 in
03:38 23.4 °F 20.7 °F 30.74 in Calm     89 % 0.00 in
03:43 23.7 °F 21.0 °F 30.74 in Calm     89 % 0.00 in
03:48 23.7 °F 21.0 °F 30.74 in Calm     89 % 0.00 in
03:53 24.1 °F 21.6 °F 30.74 in Calm     90 % 0.00 in
03:58 24.3 °F 21.6 °F 30.74 in Calm     89 % 0.00 in
04:03 24.3 °F 21.2 °F 30.74 in Calm     88 % 0.00 in
04:08 23.7 °F 20.7 °F 30.73 in Calm     88 % 0.00 in
04:14 23.7 °F 20.7 °F 30.73 in Calm     88 % 0.00 in
04:19 23.5 °F 20.5 °F 30.73 in Calm     88 % 0.00 in
04:24 23.4 °F 20.3 °F 30.73 in Calm     88 % 0.00 in
04:29 23.5 °F 20.8 °F 30.73 in Calm     89 % 0.00 in
04:34 23.5 °F 20.8 °F 30.73 in Calm     89 % 0.00 in
04:39 23.5 °F 20.8 °F 30.73 in Calm     89 % 0.00 in
04:44 23.5 °F 20.8 °F 30.72 in Calm     89 % 0.00 in
04:49 23.2 °F 20.5 °F 30.72 in Calm     89 % 0.00 in
04:54 23.2 °F 20.5 °F 30.72 in Calm     89 % 0.00 in
04:59 22.8 °F 20.1 °F 30.71 in Calm     89 % 0.00 in
05:04 22.6 °F 19.6 °F 30.71 in Calm     88 % 0.00 in
05:09 22.6 °F 19.9 °F 30.71 in Calm     89 % 0.00 in
05:14 22.5 °F 19.8 °F 30.71 in Calm     89 % 0.00 in
05:19 22.5 °F 19.9 °F 30.71 in Calm     90 % 0.00 in
05:24 22.6 °F 20.5 °F 30.71 in Calm     91 % 0.00 in
05:29 23.2 °F 21.0 °F 30.71 in Calm     91 % 0.00 in
05:34 22.8 °F 20.7 °F 30.71 in Calm     91 % 0.00 in
05:39 22.6 °F 20.5 °F 30.71 in Calm     91 % 0.00 in
05:44 22.8 °F 20.8 °F 30.72 in Calm     92 % 0.00 in
05:49 23.0 °F 20.8 °F 30.72 in Calm     91 % 0.00 in
05:54 23.2 °F 21.0 °F 30.72 in Calm     91 % 0.00 in
05:59 23.0 °F 20.8 °F 30.73 in Calm     91 % 0.00 in
06:04 23.0 °F 20.8 °F 30.73 in Calm     91 % 0.00 in
06:09 23.0 °F 20.8 °F 30.73 in Calm     91 % 0.00 in
06:14 23.2 °F 21.0 °F 30.73 in Calm     91 % 0.00 in
06:19 23.2 °F 21.0 °F 30.74 in Calm     91 % 0.00 in
06:24 23.2 °F 21.0 °F 30.73 in Calm     91 % 0.00 in
06:29 22.8 °F 20.7 °F 30.74 in Calm     91 % 0.00 in
06:34 22.8 °F 20.7 °F 30.74 in Calm     91 % 0.00 in
06:39 22.8 °F 20.7 °F 30.74 in Calm     91 % 0.00 in
06:44 22.8 °F 20.7 °F 30.74 in Calm     91 % 0.00 in
06:49 22.8 °F 20.7 °F 30.74 in Calm     91 % 0.00 in
06:54 22.8 °F 20.8 °F 30.74 in Calm     92 % 0.00 in
06:59 22.8 °F 20.8 °F 30.74 in Calm     92 % 0.00 in
07:04 22.8 °F 20.7 °F 30.73 in Calm     91 % 0.00 in
07:09 22.6 °F 20.5 °F 30.74 in Calm     91 % 0.00 in
07:14 22.5 °F 20.3 °F 30.73 in Calm     91 % 0.00 in
07:21 22.5 °F 20.5 °F 30.74 in Calm     92 % 0.00 in
07:43 22.8 °F 20.8 °F 30.74 in Calm     92 % 0.00 in
07:49 23.4 °F 21.6 °F 30.75 in Calm     93 % 0.00 in
07:57 24.8 °F 23.0 °F 30.75 in Calm     93 % 0.00 in
08:15 28.6 °F 26.2 °F 30.76 in North 1.0 mph   91 % 0.00 in
08:29 30.7 °F 26.4 °F 30.76 in Calm   1.0 mph 84 % 0.00 in
08:34 31.5 °F 26.6 °F 30.75 in East 2.0 mph 2.0 mph 82 % 0.00 in
08:39 31.8 °F 25.2 °F 30.75 in Calm   2.0 mph 76 % 0.00 in
08:44 32.4 °F 24.6 °F 30.76 in Calm   3.0 mph 73 % 0.00 in
08:49 33.3 °F 24.6 °F 30.76 in Calm   3.0 mph 70 % 0.00 in
08:54 33.4 °F 23.0 °F 30.76 in ENE 1.0 mph 3.0 mph 65 % 0.00 in
08:59 34.0 °F 23.9 °F 30.75 in ESE 1.0 mph 5.0 mph 66 % 0.00 in
09:04 34.5 °F 23.2 °F 30.75 in East 4.0 mph 5.0 mph 63 % 0.00 in
09:09 34.5 °F 22.1 °F 30.75 in Calm   5.0 mph 60 % 0.00 in
09:14 35.1 °F 21.4 °F 30.75 in ENE 2.0 mph 5.0 mph 57 % 0.00 in
09:19 35.2 °F 21.9 °F 30.75 in NNW 2.0 mph 5.0 mph 58 % 0.00 in
09:24 35.6 °F 21.4 °F 30.75 in East 5.0 mph 5.0 mph 56 % 0.00 in
09:29 36.0 °F 21.4 °F 30.76 in SE 2.0 mph 6.0 mph 55 % 0.00 in
09:34 36.5 °F 21.0 °F 30.75 in ENE 1.0 mph 6.0 mph 53 % 0.00 in
09:39 36.9 °F 20.8 °F 30.75 in East 2.0 mph 6.0 mph 52 % 0.00 in
09:44 36.9 °F 19.4 °F 30.75 in ESE 1.0 mph 6.0 mph 49 % 0.00 in
09:49 37.0 °F 18.7 °F 30.75 in ESE 1.0 mph 6.0 mph 47 % 0.00 in
09:54 37.6 °F 19.2 °F 30.75 in ENE 4.0 mph 6.0 mph 47 % 0.00 in
09:59 37.9 °F 19.6 °F 30.75 in SE 4.0 mph 6.0 mph 47 % 0.00 in
10:04 37.9 °F 18.0 °F 30.75 in Calm   7.0 mph 44 % 0.00 in
10:09 37.9 °F 18.5 °F 30.75 in Calm   11.0 mph 45 % 0.00 in
10:14 38.5 °F 18.0 °F 30.74 in ESE 3.0 mph 11.0 mph 43 % 0.00 in
10:19 38.7 °F 19.6 °F 30.74 in SE 3.0 mph 11.0 mph 46 % 0.00 in
10:24 39.4 °F 19.2 °F 30.74 in South 6.0 mph 9.0 mph 44 % 0.00 in
10:29 39.7 °F 20.1 °F 30.74 in SSE 2.0 mph 9.0 mph 45 % 0.00 in
10:34 39.9 °F 19.8 °F 30.74 in East 3.0 mph 9.0 mph 44 % 0.00 in
10:39 40.5 °F 20.3 °F 30.74 in East 2.0 mph 7.0 mph 44 % 0.00 in
10:44 40.6 °F 18.9 °F 30.74 in SE 5.0 mph 7.0 mph 41 % 0.00 in
10:49 40.6 °F 17.1 °F 30.74 in SE 2.0 mph 7.0 mph 38 % 0.00 in
10:55 41.4 °F 18.3 °F 30.74 in SE 4.0 mph 9.0 mph 39 % 0.00 in
11:00 41.5 °F 16.0 °F 30.74 in ESE 2.0 mph 9.0 mph 35 % 0.00 in
11:05 41.5 °F 16.0 °F 30.74 in ESE 6.0 mph 9.0 mph 35 % 0.00 in
11:10 41.5 °F 15.3 °F 30.74 in ESE 5.0 mph 9.0 mph 34 % 0.00 in
11:15 42.1 °F 16.3 °F 30.74 in ESE 3.0 mph 10.0 mph 35 % 0.00 in
11:20 42.4 °F 16.7 °F 30.73 in SSE 4.0 mph 10.0 mph 35 % 0.00 in
11:25 42.8 °F 17.6 °F 30.73 in ENE 3.0 mph 9.0 mph 36 % 0.00 in
11:30 43.0 °F 15.1 °F 30.73 in ESE 4.0 mph 9.0 mph 32 % 0.00 in
11:35 43.2 °F 15.3 °F 30.73 in SE 2.0 mph 10.0 mph 32 % 0.00 in
11:40 43.2 °F 15.3 °F 30.73 in SE 3.0 mph 10.0 mph 32 % 0.00 in
11:45 43.3 °F 14.7 °F 30.73 in SE 5.0 mph 9.0 mph 31 % 0.00 in
11:50 43.5 °F 15.6 °F 30.72 in SSE 2.0 mph 9.0 mph 32 % 0.00 in
11:55 43.5 °F 14.2 °F 30.72 in East 7.0 mph 9.0 mph 30 % 0.00 in
12:00 44.1 °F 16.7 °F 30.71 in East 3.0 mph 9.0 mph 33 % 0.00 in
12:05 44.2 °F 15.4 °F 30.71 in SE 3.0 mph 11.0 mph 31 % 0.00 in
12:10 43.9 °F 15.3 °F 30.71 in SE 3.0 mph 11.0 mph 31 % 0.00 in
12:15 44.2 °F 16.2 °F 30.71 in SSE 3.0 mph 11.0 mph 32 % 0.00 in
12:20 44.2 °F 16.2 °F 30.71 in ENE 1.0 mph 11.0 mph 32 % 0.00 in
12:25 44.2 °F 15.4 °F 30.70 in NE 1.0 mph 11.0 mph 31 % 0.00 in
12:30 44.8 °F 16.7 °F 30.70 in South 6.0 mph 11.0 mph 32 % 0.00 in
12:35 45.1 °F 17.1 °F 30.70 in SE 3.0 mph 8.0 mph 32 % 0.00 in
12:40 46.0 °F 18.5 °F 30.69 in East 2.0 mph 8.0 mph 33 % 0.00 in
12:45 46.6 °F 19.0 °F 30.69 in SSE 7.0 mph 8.0 mph 33 % 0.00 in
12:50 46.8 °F 19.2 °F 30.69 in SSE 3.0 mph 8.0 mph 33 % 0.00 in
12:56 47.3 °F 19.6 °F 30.68 in ESE 4.0 mph 8.0 mph 33 % 0.00 in
13:01 46.6 °F 20.3 °F 30.68 in South 4.0 mph 9.0 mph 35 % 0.00 in
13:06 46.4 °F 20.3 °F 30.67 in South 2.0 mph 9.0 mph 35 % 0.00 in
13:11 46.8 °F 19.9 °F 30.67 in ESE 4.0 mph 9.0 mph 34 % 0.00 in
13:16 47.1 °F 20.8 °F 30.67 in SE 2.0 mph 8.0 mph 35 % 0.00 in
13:21 47.1 °F 20.8 °F 30.66 in ENE 7.0 mph 9.0 mph 35 % 0.00 in
13:26 46.9 °F 21.4 °F 30.66 in SSE 6.0 mph 9.0 mph 36 % 0.00 in
13:31 47.5 °F 22.5 °F 30.66 in SE 3.0 mph 9.0 mph 37 % 0.00 in
13:36 47.5 °F 21.2 °F 30.65 in ESE 3.0 mph 8.0 mph 35 % 0.00 in
13:41 47.5 °F 22.5 °F 30.65 in SSE 5.0 mph 9.0 mph 37 % 0.00 in
13:46 47.3 °F 23.0 °F 30.64 in ESE 3.0 mph 10.0 mph 38 % 0.00 in
13:51 47.5 °F 22.5 °F 30.64 in ESE 5.0 mph 11.0 mph 37 % 0.00 in
13:56 47.7 °F 24.4 °F 30.64 in SE 1.0 mph 11.0 mph 40 % 0.00 in
14:01 48.0 °F 25.5 °F 30.63 in ESE 10.0 mph 13.0 mph 41 % 0.00 in
14:06 47.8 °F 25.3 °F 30.63 in East 1.0 mph 13.0 mph 41 % 0.00 in
14:11 47.8 °F 25.9 °F 30.63 in ENE 4.0 mph 13.0 mph 42 % 0.00 in
14:16 48.2 °F 26.2 °F 30.62 in SSE 6.0 mph 10.0 mph 42 % 0.00 in
14:21 48.2 °F 26.8 °F 30.62 in SSE 2.0 mph 11.0 mph 43 % 0.00 in
14:26 48.9 °F 27.3 °F 30.61 in ESE 2.0 mph 11.0 mph 43 % 0.00 in
14:31 48.9 °F 28.0 °F 30.61 in South 6.0 mph 12.0 mph 44 % 0.00 in
14:32 48.7 °F 27.9 °F 30.61 in ESE 5.0 mph 12.0 mph 44 % 0.00 in
14:37 48.9 °F 29.1 °F 30.61 in SSW 8.0 mph 12.0 mph 46 % 0.00 in
14:42 49.3 °F 29.3 °F 30.61 in SSW 2.0 mph 12.0 mph 46 % 0.00 in
14:47 49.3 °F 29.8 °F 30.61 in SE 5.0 mph 10.0 mph 47 % 0.00 in
14:52 49.1 °F 30.2 °F 30.60 in ESE 4.0 mph 10.0 mph 48 % 0.00 in
14:57 48.9 °F 31.1 °F 30.60 in SSE 3.0 mph 10.0 mph 50 % 0.00 in
15:02 49.3 °F 32.4 °F 30.60 in East 5.0 mph 11.0 mph 52 % 0.00 in
15:07 49.3 °F 32.0 °F 30.60 in South 5.0 mph 11.0 mph 51 % 0.00 in
15:12 49.6 °F 32.7 °F 30.60 in South 6.0 mph 11.0 mph 52 % 0.00 in
15:17 49.8 °F 32.4 °F 30.59 in ESE 5.0 mph 10.0 mph 51 % 0.00 in
15:22 49.8 °F 32.9 °F 30.60 in ESE 7.0 mph 9.0 mph 52 % 0.00 in
15:27 49.5 °F 33.1 °F 30.59 in SSE 6.0 mph 12.0 mph 53 % 0.00 in
15:32 49.5 °F 33.1 °F 30.59 in East 4.0 mph 12.0 mph 53 % 0.00 in
15:37 49.5 °F 33.1 °F 30.59 in ESE 3.0 mph 12.0 mph 53 % 0.00 in
15:42 49.5 °F 33.4 °F 30.58 in ESE 9.0 mph 11.0 mph 54 % 0.00 in
15:47 49.3 °F 33.3 °F 30.58 in ESE 5.0 mph 12.0 mph 54 % 0.00 in
15:52 49.5 °F 33.4 °F 30.58 in East 3.0 mph 12.0 mph 54 % 0.00 in
15:57 49.5 °F 33.4 °F 30.58 in SE 2.0 mph 12.0 mph 54 % 0.00 in
16:02 49.6 °F 33.6 °F 30.58 in ENE 6.0 mph 11.0 mph 54 % 0.00 in
16:07 49.3 °F 33.3 °F 30.58 in SE 6.0 mph 11.0 mph 54 % 0.00 in
16:12 49.5 °F 34.0 °F 30.58 in South 4.0 mph 11.0 mph 55 % 0.00 in
16:17 49.5 °F 33.4 °F 30.57 in SE 6.0 mph 11.0 mph 54 % 0.00 in
16:22 49.3 °F 34.2 °F 30.57 in East 4.0 mph 11.0 mph 56 % 0.00 in
16:27 49.3 °F 34.2 °F 30.57 in ESE 2.0 mph 11.0 mph 56 % 0.00 in
16:32 49.3 °F 34.2 °F 30.57 in ESE 6.0 mph 11.0 mph 56 % 0.00 in
16:37 49.1 °F 34.2 °F 30.56 in East 2.0 mph 11.0 mph 56 % 0.00 in
16:42 48.9 °F 34.0 °F 30.56 in SE 6.0 mph 11.0 mph 56 % 0.00 in
16:47 48.7 °F 34.2 °F 30.56 in SSE 4.0 mph 10.0 mph 57 % 0.00 in
16:52 48.7 °F 34.7 °F 30.56 in SW 3.0 mph 10.0 mph 58 % 0.00 in
16:57 48.7 °F 34.7 °F 30.56 in East 5.0 mph 10.0 mph 58 % 0.00 in
17:02 48.6 °F 34.0 °F 30.56 in SSE 4.0 mph 9.0 mph 57 % 0.00 in
17:07 48.2 °F 34.2 °F 30.56 in SSE 6.0 mph 10.0 mph 58 % 0.00 in
17:12 48.0 °F 34.3 °F 30.56 in SE 7.0 mph 10.0 mph 59 % 0.00 in
17:17 47.8 °F 34.2 °F 30.55 in ESE 6.0 mph 10.0 mph 59 % 0.00 in
17:22 47.7 °F 34.5 °F 30.55 in SW 4.0 mph 10.0 mph 60 % 0.00 in
17:27 47.5 °F 34.7 °F 30.55 in SE 2.0 mph 10.0 mph 61 % 0.00 in
17:32 47.1 °F 34.7 °F 30.55 in SE 3.0 mph 8.0 mph 62 % 0.00 in
17:37 46.9 °F 34.5 °F 30.55 in SSE 2.0 mph 8.0 mph 62 % 0.00 in
17:42 46.8 °F 34.9 °F 30.55 in South 5.0 mph 9.0 mph 63 % 0.00 in
17:47 46.8 °F 34.9 °F 30.55 in ESE 7.0 mph 9.0 mph 63 % 0.00 in
17:52 46.4 °F 34.9 °F 30.55 in ESE 5.0 mph 9.0 mph 64 % 0.00 in
17:57 46.2 °F 35.1 °F 30.54 in SE 1.0 mph 8.0 mph 65 % 0.00 in
18:02 46.0 °F 34.9 °F 30.55 in Calm   8.0 mph 65 % 0.00 in
18:07 45.9 °F 35.1 °F 30.54 in ESE 4.0 mph 6.0 mph 66 % 0.00 in
18:12 45.7 °F 35.4 °F 30.54 in SE 1.0 mph 6.0 mph 67 % 0.00 in
18:17 45.3 °F 35.1 °F 30.54 in SE 2.0 mph 6.0 mph 67 % 0.00 in
18:22 45.1 °F 35.2 °F 30.54 in East 2.0 mph 6.0 mph 68 % 0.00 in
18:27 45.1 °F 35.6 °F 30.54 in ESE 1.0 mph 5.0 mph 69 % 0.00 in
18:32 45.0 °F 35.4 °F 30.54 in SE 1.0 mph 5.0 mph 69 % 0.00 in
18:37 44.8 °F 35.6 °F 30.54 in ESE 1.0 mph 5.0 mph 70 % 0.00 in
18:42 44.4 °F 35.2 °F 30.53 in East 1.0 mph 4.0 mph 70 % 0.00 in
18:47 44.2 °F 35.4 °F 30.53 in ESE 2.0 mph 4.0 mph 71 % 0.00 in
18:52 44.2 °F 35.4 °F 30.53 in SE 3.0 mph 6.0 mph 71 % 0.00 in
18:57 44.1 °F 35.6 °F 30.53 in SE 1.0 mph 6.0 mph 72 % 0.00 in
19:02 43.9 °F 35.4 °F 30.53 in ESE 2.0 mph 6.0 mph 72 % 0.00 in
19:07 43.7 °F 35.6 °F 30.53 in ESE 3.0 mph 5.0 mph 73 % 0.00 in
19:12 43.5 °F 35.4 °F 30.53 in SE 1.0 mph 5.0 mph 73 % 0.00 in
19:17 43.5 °F 35.8 °F 30.53 in ESE 2.0 mph 7.0 mph 74 % 0.00 in
19:22 43.5 °F 35.8 °F 30.52 in SSE 3.0 mph 7.0 mph 74 % 0.00 in
19:27 43.5 °F 36.1 °F 30.53 in SE 2.0 mph 7.0 mph 75 % 0.00 in
19:32 43.5 °F 36.1 °F 30.52 in SE 3.0 mph 6.0 mph 75 % 0.00 in
19:37 43.3 °F 36.0 °F 30.52 in SE 1.0 mph 5.0 mph 75 % 0.00 in
19:42 43.3 °F 36.3 °F 30.53 in ESE 1.0 mph 5.0 mph 76 % 0.00 in
19:47 43.2 °F 36.1 °F 30.53 in ESE 2.0 mph 4.0 mph 76 % 0.00 in
19:52 43.2 °F 36.5 °F 30.53 in ESE 4.0 mph 4.0 mph 77 % 0.00 in
19:57 43.2 °F 36.5 °F 30.53 in ESE 2.0 mph 5.0 mph 77 % 0.00 in
20:02 43.0 °F 36.3 °F 30.54 in Calm   5.0 mph 77 % 0.00 in
20:07 42.8 °F 36.1 °F 30.54 in Calm   5.0 mph 77 % 0.00 in
20:12 42.8 °F 36.5 °F 30.54 in Calm   4.0 mph 78 % 0.00 in
20:17 42.6 °F 36.3 °F 30.55 in Calm   4.0 mph 78 % 0.00 in
20:22 42.4 °F 36.1 °F 30.55 in Calm   3.0 mph 78 % 0.00 in
20:27 42.3 °F 36.0 °F 30.55 in Calm   3.0 mph 78 % 0.00 in
20:32 41.9 °F 35.8 °F 30.55 in Calm   1.0 mph 79 % 0.00 in
20:33 41.9 °F 35.8 °F 30.56 in Calm   1.0 mph 79 % 0.00 in
20:38 41.7 °F 36.0 °F 30.56 in Calm   1.0 mph 80 % 0.00 in
20:43 41.5 °F 35.8 °F 30.55 in Calm   2.0 mph 80 % 0.00 in
20:48 41.5 °F 35.8 °F 30.55 in Calm   2.0 mph 80 % 0.00 in
20:53 41.5 °F 35.8 °F 30.55 in Calm   4.0 mph 80 % 0.00 in
20:58 41.4 °F 35.6 °F 30.55 in Calm   4.0 mph 80 % 0.00 in
21:03 41.2 °F 35.4 °F 30.55 in East 1.0 mph 4.0 mph 80 % 0.00 in
21:08 41.2 °F 35.4 °F 30.56 in Calm   2.0 mph 80 % 0.00 in
21:13 40.8 °F 35.1 °F 30.56 in Calm   1.0 mph 80 % 0.00 in
21:18 40.6 °F 34.9 °F 30.56 in Calm   1.0 mph 80 % 0.00 in
21:23 40.5 °F 35.1 °F 30.56 in Calm   1.0 mph 81 % 0.00 in
21:28 40.3 °F 35.2 °F 30.55 in Calm   1.0 mph 82 % 0.00 in
21:33 40.1 °F 35.1 °F 30.55 in Calm   1.0 mph 82 % 0.00 in
21:38 39.7 °F 34.7 °F 30.56 in Calm   1.0 mph 82 % 0.00 in
21:43 39.6 °F 34.9 °F 30.56 in Calm   1.0 mph 83 % 0.00 in
21:48 39.6 °F 34.9 °F 30.56 in Calm   1.0 mph 83 % 0.00 in
21:53 39.6 °F 34.9 °F 30.55 in Calm   1.0 mph 83 % 0.00 in
21:58 39.4 °F 34.7 °F 30.55 in Calm   1.0 mph 83 % 0.00 in
22:03 39.6 °F 35.1 °F 30.55 in ESE 1.0 mph 1.0 mph 84 % 0.00 in
22:08 39.9 °F 35.4 °F 30.55 in Calm   2.0 mph 84 % 0.00 in
22:13 40.3 °F 35.8 °F 30.55 in Calm   2.0 mph 84 % 0.00 in
22:19 40.5 °F 35.8 °F 30.55 in Calm   2.0 mph 83 % 0.00 in
22:24 40.6 °F 36.0 °F 30.54 in Calm   2.0 mph 83 % 0.00 in
22:29 40.6 °F 35.6 °F 30.55 in ENE 1.0 mph 3.0 mph 82 % 0.00 in
22:34 40.8 °F 35.8 °F 30.55 in ENE 1.0 mph 3.0 mph 82 % 0.00 in
22:39 41.2 °F 35.8 °F 30.54 in SE 1.0 mph 3.0 mph 81 % 0.00 in
22:44 41.4 °F 36.0 °F 30.54 in SE 1.0 mph 3.0 mph 81 % 0.00 in
22:49 41.5 °F 35.8 °F 30.53 in ESE 2.0 mph 3.0 mph 80 % 0.00 in
22:54 41.5 °F 35.6 °F 30.53 in ESE 2.0 mph 4.0 mph 79 % 0.00 in
22:59 41.7 °F 35.8 °F 30.53 in ESE 2.0 mph 4.0 mph 79 % 0.00 in
23:04 41.9 °F 35.8 °F 30.53 in Calm   5.0 mph 79 % 0.00 in
23:09 42.1 °F 36.0 °F 30.53 in Calm   5.0 mph 79 % 0.00 in
23:14 42.1 °F 36.0 °F 30.53 in Calm   5.0 mph 79 % 0.00 in
23:19 42.3 °F 36.0 °F 30.53 in Calm   3.0 mph 78 % 0.00 in
23:24 42.3 °F 36.0 °F 30.53 in ESE 2.0 mph 3.0 mph 78 % 0.00 in
23:29 42.3 °F 36.0 °F 30.52 in Calm   2.0 mph 78 % 0.00 in
23:34 42.3 °F 36.0 °F 30.52 in Calm   2.0 mph 78 % 0.00 in
23:39 42.4 °F 36.3 °F 30.52 in ESE 1.0 mph 2.0 mph 79 % 0.00 in
23:44 42.4 °F 36.3 °F 30.52 in Calm   1.0 mph 79 % 0.00 in
23:49 42.6 °F 36.5 °F 30.52 in ENE 1.0 mph 2.0 mph 79 % 0.00 in
23:54 42.6 °F 36.5 °F 30.52 in Calm   2.0 mph 79 % 0.00 in
23:59 42.6 °F 36.5 °F 30.51 in East 2.0 mph 2.0 mph 79 % 0.00 in
Spring, Texas: Villages of Bridgestone
Compliments of Weather Underground - 2.75 mb

Script developed by  Jim McMurry - jmcmurry@mwt.net Adapted for the template by  Wim van der Kuil - Leuven-Template.eu

You find our weather info also at:

UK Metoffice

WeatherCloud

Weather Underground

Mid-South Weather Network

AWEKAS

Citizen Weather Observer Program (CWOP)

HAMweather, WeatherForYou, PWS Weather

Equipment we use:

Weather-station
Davis Vantage Vue

Weather-program
Meteohub

Weather-server
Debian 7.9 x86 (Guest)

Provider
DreamHost

Davis Vantage Vue

Meteohub

Debian 7.9 x86 (Guest)

DreamHost